createdAt,value
2022-12-17T00:00:29.821Z,0.00
2022-12-17T00:01:29.751Z,0.00
2022-12-17T00:02:29.895Z,0.00
2022-12-17T00:03:29.918Z,0.00
2022-12-17T00:04:29.736Z,0.00
2022-12-17T00:05:29.699Z,0.00
2022-12-17T00:06:29.712Z,0.00
2022-12-17T00:07:29.713Z,0.00
2022-12-17T00:08:29.687Z,0.00
2022-12-17T00:09:29.654Z,0.00
2022-12-17T00:10:29.657Z,0.00
2022-12-17T00:11:29.654Z,0.00
2022-12-17T00:12:29.638Z,0.00
2022-12-17T00:13:29.596Z,0.00
2022-12-17T00:14:29.619Z,0.00
2022-12-17T00:15:29.604Z,0.00
2022-12-17T00:16:29.658Z,0.00
2022-12-17T00:17:29.578Z,0.00
2022-12-17T00:18:29.551Z,0.00
2022-12-17T00:19:29.553Z,0.00
2022-12-17T00:20:29.535Z,0.00
2022-12-17T00:21:29.538Z,0.00
2022-12-17T00:22:29.500Z,0.00
2022-12-17T00:23:29.507Z,0.00
2022-12-17T00:24:29.468Z,0.00
2022-12-17T00:25:29.477Z,0.00
2022-12-17T00:26:29.499Z,0.00
2022-12-17T00:27:29.454Z,0.00
2022-12-17T00:28:29.439Z,0.00
2022-12-17T00:29:29.423Z,0.00
2022-12-17T00:30:29.406Z,0.00
2022-12-17T00:31:29.489Z,0.00
2022-12-17T00:32:29.395Z,0.00
2022-12-17T00:33:29.379Z,0.00
2022-12-17T00:34:29.350Z,0.00
2022-12-17T00:35:29.357Z,0.00
2022-12-17T00:36:29.314Z,0.00
2022-12-17T00:37:29.343Z,0.00
2022-12-17T00:38:29.306Z,0.00
2022-12-17T00:39:29.312Z,0.00
2022-12-17T00:40:29.295Z,0.00
2022-12-17T00:41:29.297Z,0.00
2022-12-17T00:42:29.251Z,0.00
2022-12-17T00:43:29.257Z,0.00
2022-12-17T00:44:29.220Z,0.00
2022-12-17T00:45:29.280Z,0.00
2022-12-17T00:46:29.251Z,0.00
2022-12-17T00:47:29.226Z,0.00
2022-12-17T00:48:29.190Z,0.00
2022-12-17T00:49:29.187Z,0.00
2022-12-17T00:50:29.144Z,0.00
2022-12-17T00:51:29.176Z,0.00
2022-12-17T00:52:29.121Z,0.00
2022-12-17T00:53:29.135Z,0.00
2022-12-17T00:54:29.104Z,0.00
2022-12-17T00:55:29.128Z,0.00
2022-12-17T00:56:29.088Z,0.00
2022-12-17T00:57:29.099Z,0.00
2022-12-17T00:58:29.076Z,0.00
2022-12-17T00:59:29.064Z,0.00
2022-12-17T01:00:29.109Z,0.00
2022-12-17T01:01:29.213Z,0.00
2022-12-17T01:02:29.118Z,0.00
2022-12-17T01:03:29.016Z,0.00
2022-12-17T01:04:28.974Z,0.00
2022-12-17T01:05:28.991Z,0.00
2022-12-17T01:06:28.957Z,0.00
2022-12-17T01:07:28.970Z,0.00
2022-12-17T01:08:28.937Z,0.00
2022-12-17T01:09:28.936Z,0.00
2022-12-17T01:10:28.891Z,0.00
2022-12-17T01:11:28.917Z,0.00
2022-12-17T01:12:28.869Z,0.00
2022-12-17T01:13:28.907Z,0.00
2022-12-17T01:14:28.842Z,0.00
2022-12-17T01:15:28.851Z,0.00
2022-12-17T01:16:28.888Z,0.00
2022-12-17T01:17:28.847Z,0.00
2022-12-17T01:18:28.821Z,0.00
2022-12-17T01:19:28.816Z,0.00
2022-12-17T01:20:28.788Z,0.00
2022-12-17T01:21:28.793Z,0.00
2022-12-17T01:22:28.743Z,0.00
2022-12-17T01:23:28.783Z,0.00
2022-12-17T01:24:28.719Z,0.00
2022-12-17T01:25:28.730Z,0.00
2022-12-17T01:26:28.698Z,0.00
2022-12-17T01:27:28.738Z,0.00
2022-12-17T01:28:28.686Z,0.00
2022-12-17T01:29:28.684Z,0.00
2022-12-17T01:30:28.664Z,0.00
2022-12-17T01:31:34.345Z,0.00
2022-12-17T01:32:28.632Z,0.00
2022-12-17T01:33:28.650Z,0.00
2022-12-17T01:34:28.616Z,0.00
2022-12-17T01:35:28.627Z,0.00
2022-12-17T01:36:28.578Z,0.00
2022-12-17T01:37:28.577Z,0.00
2022-12-17T01:38:28.565Z,0.00
2022-12-17T01:39:28.554Z,0.00
2022-12-17T01:40:28.525Z,0.00
2022-12-17T01:41:28.546Z,0.00
2022-12-17T01:42:28.526Z,0.00
2022-12-17T01:43:28.531Z,0.00
2022-12-17T01:44:28.475Z,0.00
2022-12-17T01:45:28.533Z,0.00
2022-12-17T01:46:28.436Z,0.00
2022-12-17T01:47:28.462Z,0.00
2022-12-17T01:48:28.426Z,0.00
2022-12-17T01:49:28.448Z,0.00
2022-12-17T01:50:28.415Z,0.00
2022-12-17T01:51:28.411Z,0.00
2022-12-17T01:52:28.369Z,0.00
2022-12-17T01:53:28.383Z,0.00
2022-12-17T01:54:28.346Z,0.00
2022-12-17T01:55:28.383Z,0.00
2022-12-17T01:56:28.345Z,0.00
2022-12-17T01:57:28.338Z,0.00
2022-12-17T01:58:28.316Z,0.00
2022-12-17T01:59:28.313Z,0.00
2022-12-17T02:00:28.294Z,0.00
2022-12-17T02:01:28.464Z,0.00
2022-12-17T02:02:28.324Z,0.00
2022-12-17T02:03:28.320Z,0.00
2022-12-17T02:04:28.239Z,0.00
2022-12-17T02:05:28.259Z,0.00
2022-12-17T02:06:28.204Z,0.00
2022-12-17T02:07:28.248Z,0.00
2022-12-17T02:08:28.206Z,0.00
2022-12-17T02:09:28.189Z,0.00
2022-12-17T02:10:28.156Z,0.00
2022-12-17T02:11:28.178Z,0.00
2022-12-17T02:12:28.133Z,0.00
2022-12-17T02:13:28.163Z,0.00
2022-12-17T02:14:28.112Z,0.00
2022-12-17T02:15:28.126Z,0.00
2022-12-17T02:16:28.161Z,0.00
2022-12-17T02:17:28.103Z,0.00
2022-12-17T02:18:28.069Z,0.00
2022-12-17T02:19:28.074Z,0.00
2022-12-17T02:20:28.033Z,0.00
2022-12-17T02:21:28.052Z,0.00
2022-12-17T02:22:28.016Z,0.00
2022-12-17T02:23:28.027Z,0.00
2022-12-17T02:24:28.002Z,0.00
2022-12-17T02:25:27.992Z,0.00
2022-12-17T02:26:27.983Z,0.00
2022-12-17T02:27:27.976Z,0.00
2022-12-17T02:28:27.939Z,0.00
2022-12-17T02:29:27.952Z,0.00
2022-12-17T02:30:27.918Z,0.00
2022-12-17T02:31:27.976Z,0.00
2022-12-17T02:32:27.885Z,0.00
2022-12-17T02:33:27.889Z,0.00
2022-12-17T02:34:27.869Z,0.00
2022-12-17T02:35:27.862Z,0.00
2022-12-17T02:36:27.835Z,0.00
2022-12-17T02:37:27.843Z,0.00
2022-12-17T02:38:27.806Z,0.00
2022-12-17T02:39:27.847Z,0.00
2022-12-17T02:40:27.786Z,0.00
2022-12-17T02:41:27.787Z,0.00
2022-12-17T02:42:27.760Z,0.00
2022-12-17T02:43:27.765Z,0.00
2022-12-17T02:44:27.753Z,0.00
2022-12-17T02:45:27.736Z,0.00
2022-12-17T02:46:27.825Z,0.00
2022-12-17T02:47:27.739Z,0.00
2022-12-17T02:48:27.681Z,0.00
2022-12-17T02:49:27.700Z,0.00
2022-12-17T02:50:27.660Z,0.00
2022-12-17T02:51:27.711Z,0.00
2022-12-17T02:52:30.678Z,0.00
2022-12-17T02:53:27.643Z,0.00
2022-12-17T02:54:27.606Z,0.00
2022-12-17T02:55:27.613Z,0.00
2022-12-17T02:56:27.608Z,0.00
2022-12-17T02:57:27.587Z,0.00
2022-12-17T02:58:27.571Z,0.00
2022-12-17T02:59:27.568Z,0.00
2022-12-17T03:00:27.543Z,0.00
2022-12-17T03:01:27.642Z,0.00
2022-12-17T03:02:27.679Z,0.00
2022-12-17T03:03:27.675Z,0.00
2022-12-17T03:04:27.482Z,0.00
2022-12-17T03:05:44.447Z,0.00
2022-12-17T03:06:27.478Z,0.00
2022-12-17T03:07:27.469Z,0.00
2022-12-17T03:08:27.453Z,0.00
2022-12-17T03:09:27.441Z,0.00
2022-12-17T03:10:27.418Z,0.00
2022-12-17T03:11:27.434Z,0.00
2022-12-17T03:12:27.380Z,0.00
2022-12-17T03:13:27.414Z,0.00
2022-12-17T03:14:27.361Z,0.00
2022-12-17T03:15:27.373Z,0.00
2022-12-17T03:16:30.280Z,0.00
2022-12-17T03:17:27.366Z,0.00
2022-12-17T03:18:27.312Z,0.00
2022-12-17T03:19:27.363Z,0.00
2022-12-17T03:20:27.296Z,0.00
2022-12-17T03:21:27.296Z,0.00
2022-12-17T03:22:27.261Z,0.00
2022-12-17T03:23:27.287Z,0.00
2022-12-17T03:24:27.229Z,0.00
2022-12-17T03:25:27.240Z,0.00
2022-12-17T03:26:27.211Z,0.00
2022-12-17T03:27:27.238Z,0.00
2022-12-17T03:28:27.187Z,0.00
2022-12-17T03:29:27.223Z,0.00
2022-12-17T03:30:27.202Z,0.00
2022-12-17T03:31:27.243Z,0.00
2022-12-17T03:32:27.146Z,0.00
2022-12-17T03:33:27.146Z,0.00
2022-12-17T03:34:27.175Z,0.00
2022-12-17T03:35:27.131Z,0.00
2022-12-17T03:36:27.087Z,0.00
2022-12-17T03:37:27.138Z,0.00
2022-12-17T03:38:27.057Z,0.00
2022-12-17T03:39:27.070Z,0.00
2022-12-17T03:40:27.030Z,0.00
2022-12-17T03:41:27.072Z,0.00
2022-12-17T03:42:27.024Z,0.00
2022-12-17T03:43:27.030Z,0.00
2022-12-17T03:44:27.006Z,0.00
2022-12-17T03:45:27.016Z,0.00
2022-12-17T03:46:27.039Z,0.00
2022-12-17T03:47:27.010Z,0.00
2022-12-17T03:48:26.944Z,0.00
2022-12-17T03:49:26.963Z,0.00
2022-12-17T03:50:26.908Z,0.00
2022-12-17T03:51:26.927Z,0.00
2022-12-17T03:52:26.959Z,0.00
2022-12-17T03:53:26.905Z,0.00
2022-12-17T03:54:26.885Z,0.00
2022-12-17T03:55:26.868Z,0.00
2022-12-17T03:56:26.835Z,0.00
2022-12-17T03:57:26.848Z,0.00
2022-12-17T03:58:26.840Z,0.00
2022-12-17T03:59:26.831Z,0.00
2022-12-17T04:00:26.809Z,0.00
2022-12-17T04:01:26.886Z,0.00
2022-12-17T04:02:26.956Z,0.00
2022-12-17T04:03:26.852Z,0.00
2022-12-17T04:04:26.799Z,0.00
2022-12-17T04:05:26.748Z,0.00
2022-12-17T04:06:26.713Z,0.00
2022-12-17T04:07:26.762Z,0.00
2022-12-17T04:08:26.691Z,0.00
2022-12-17T04:09:26.698Z,0.00
2022-12-17T04:10:26.701Z,0.00
2022-12-17T04:11:26.684Z,0.00
2022-12-17T04:12:26.660Z,0.00
2022-12-17T04:13:26.674Z,0.00
2022-12-17T04:14:26.628Z,0.00
2022-12-17T04:15:26.683Z,0.00
2022-12-17T04:16:26.617Z,0.00
2022-12-17T04:17:26.609Z,0.00
2022-12-17T04:18:26.574Z,0.00
2022-12-17T04:19:26.605Z,0.00
2022-12-17T04:20:26.546Z,0.00
2022-12-17T04:21:26.550Z,0.00
2022-12-17T04:22:26.538Z,0.00
2022-12-17T04:23:26.532Z,0.00
2022-12-17T04:24:26.498Z,0.00
2022-12-17T04:25:26.507Z,0.00
2022-12-17T04:26:26.497Z,0.00
2022-12-17T04:27:26.475Z,0.00
2022-12-17T04:28:26.439Z,0.00
2022-12-17T04:29:26.455Z,0.00
2022-12-17T04:30:26.451Z,0.00
2022-12-17T04:31:26.481Z,0.00
2022-12-17T04:32:29.071Z,0.00
2022-12-17T04:33:26.410Z,0.00
2022-12-17T04:34:26.403Z,0.00
2022-12-17T04:35:26.364Z,0.00
2022-12-17T04:36:26.391Z,0.00
2022-12-17T04:37:26.338Z,0.00
2022-12-17T04:38:26.368Z,0.00
2022-12-17T04:39:26.309Z,0.00
2022-12-17T04:40:26.336Z,0.00
2022-12-17T04:41:26.313Z,0.00
2022-12-17T04:42:26.330Z,0.00
2022-12-17T04:43:26.270Z,0.00
2022-12-17T04:44:26.276Z,0.00
2022-12-17T04:45:26.236Z,0.00
2022-12-17T04:46:26.365Z,0.00
2022-12-17T04:47:26.227Z,0.00
2022-12-17T04:48:26.264Z,0.00
2022-12-17T04:49:26.190Z,0.00
2022-12-17T04:50:26.195Z,0.00
2022-12-17T04:51:26.188Z,0.00
2022-12-17T04:52:26.181Z,0.00
2022-12-17T04:53:26.135Z,0.00
2022-12-17T04:54:26.153Z,0.00
2022-12-17T04:55:26.135Z,0.00
2022-12-17T04:56:26.124Z,0.00
2022-12-17T04:57:26.092Z,0.00
2022-12-17T04:58:26.123Z,0.00
2022-12-17T04:59:26.074Z,0.00
2022-12-17T05:00:26.086Z,0.00
2022-12-17T05:01:26.160Z,0.00
2022-12-17T05:02:26.218Z,0.00
2022-12-17T05:03:26.126Z,0.00
2022-12-17T05:04:26.017Z,0.00
2022-12-17T05:05:26.025Z,0.00
2022-12-17T05:06:26.013Z,0.00
2022-12-17T05:07:25.969Z,0.00
2022-12-17T05:08:25.980Z,0.00
2022-12-17T05:09:25.936Z,0.00
2022-12-17T05:10:25.954Z,0.00
2022-12-17T05:11:25.953Z,0.00
2022-12-17T05:12:25.925Z,0.00
2022-12-17T05:13:25.886Z,0.00
2022-12-17T05:14:25.899Z,0.00
2022-12-17T05:15:25.895Z,0.00
2022-12-17T05:16:25.927Z,0.00
2022-12-17T05:17:25.861Z,0.00
2022-12-17T05:18:25.864Z,0.00
2022-12-17T05:19:25.821Z,0.00
2022-12-17T05:20:25.865Z,0.00
2022-12-17T05:21:30.476Z,0.00
2022-12-17T05:22:25.819Z,0.00
2022-12-17T05:23:25.761Z,0.00
2022-12-17T05:24:25.778Z,0.00
2022-12-17T05:25:25.757Z,0.00
2022-12-17T05:26:25.758Z,0.00
2022-12-17T05:27:25.726Z,0.00
2022-12-17T05:28:25.758Z,0.00
2022-12-17T05:29:25.699Z,0.00
2022-12-17T05:30:25.715Z,0.00
2022-12-17T05:31:25.751Z,0.00
2022-12-17T05:32:25.681Z,0.00
2022-12-17T05:33:25.707Z,0.00
2022-12-17T05:34:25.665Z,0.00
2022-12-17T05:35:25.625Z,0.00
2022-12-17T05:36:25.637Z,0.00
2022-12-17T05:37:25.599Z,0.00
2022-12-17T05:38:25.653Z,0.00
2022-12-17T05:39:25.593Z,0.00
2022-12-17T05:40:25.589Z,0.00
2022-12-17T05:41:25.563Z,0.00
2022-12-17T05:42:25.556Z,0.00
2022-12-17T05:43:25.552Z,0.00
2022-12-17T05:44:25.562Z,0.00
2022-12-17T05:45:25.495Z,0.00
2022-12-17T05:46:25.605Z,0.00
2022-12-17T05:47:25.479Z,0.00
2022-12-17T05:48:25.485Z,0.00
2022-12-17T05:49:25.481Z,0.00
2022-12-17T05:50:25.463Z,0.00
2022-12-17T05:51:25.425Z,0.00
2022-12-17T05:52:25.440Z,0.00
2022-12-17T05:53:25.389Z,0.00
2022-12-17T05:54:25.433Z,0.00
2022-12-17T05:55:25.368Z,0.00
2022-12-17T05:56:25.384Z,0.00
2022-12-17T05:57:25.365Z,0.00
2022-12-17T05:58:25.350Z,0.00
2022-12-17T05:59:25.316Z,0.00
2022-12-17T06:00:25.355Z,0.00
2022-12-17T06:01:25.353Z,0.00
2022-12-17T06:02:25.337Z,0.00
2022-12-17T06:03:25.396Z,0.00
2022-12-17T06:04:25.299Z,0.00
2022-12-17T06:05:25.273Z,0.00
2022-12-17T06:06:25.262Z,0.00
2022-12-17T06:07:25.216Z,0.00
2022-12-17T06:08:25.250Z,0.00
2022-12-17T06:09:25.228Z,0.00
2022-12-17T06:10:25.208Z,0.00
2022-12-17T06:11:25.170Z,0.00
2022-12-17T06:12:25.215Z,0.00
2022-12-17T06:13:25.142Z,0.00
2022-12-17T06:14:25.168Z,0.00
2022-12-17T06:15:25.139Z,0.00
2022-12-17T06:16:25.210Z,0.00
2022-12-17T06:17:25.127Z,0.00
2022-12-17T06:18:25.104Z,0.00
2022-12-17T06:19:25.068Z,0.00
2022-12-17T06:20:25.088Z,0.00
2022-12-17T06:21:25.056Z,0.00
2022-12-17T06:22:25.089Z,0.00
2022-12-17T06:23:25.028Z,0.00
2022-12-17T06:24:25.040Z,0.00
2022-12-17T06:25:25.009Z,0.00
2022-12-17T06:26:25.032Z,0.00
2022-12-17T06:27:24.994Z,0.00
2022-12-17T06:28:24.993Z,0.00
2022-12-17T06:29:24.961Z,0.00
2022-12-17T06:30:24.971Z,0.00
2022-12-17T06:31:25.015Z,0.00
2022-12-17T06:32:24.939Z,0.00
2022-12-17T06:33:24.907Z,0.00
2022-12-17T06:34:24.921Z,0.00
2022-12-17T06:35:24.872Z,0.00
2022-12-17T06:36:24.914Z,0.00
2022-12-17T06:37:24.883Z,0.00
2022-12-17T06:38:24.866Z,0.00
2022-12-17T06:39:24.838Z,0.00
2022-12-17T06:40:24.831Z,0.00
2022-12-17T06:41:24.832Z,0.00
2022-12-17T06:42:24.820Z,0.00
2022-12-17T06:43:24.792Z,0.00
2022-12-17T06:44:24.808Z,0.00
2022-12-17T06:45:24.760Z,0.00
2022-12-17T06:46:24.821Z,0.00
2022-12-17T06:47:24.730Z,0.00
2022-12-17T06:48:24.743Z,0.00
2022-12-17T06:49:24.701Z,0.00
2022-12-17T06:50:24.753Z,0.00
2022-12-17T06:51:24.683Z,0.00
2022-12-17T06:52:24.716Z,0.00
2022-12-17T06:53:24.682Z,0.00
2022-12-17T06:54:24.674Z,0.00
2022-12-17T06:55:24.643Z,0.00
2022-12-17T06:56:24.669Z,0.00
2022-12-17T06:57:24.632Z,0.00
2022-12-17T06:58:24.642Z,0.00
2022-12-17T06:59:24.584Z,0.00
2022-12-17T07:00:24.613Z,0.00
2022-12-17T07:01:24.668Z,4.00
2022-12-17T07:02:24.699Z,4.00
2022-12-17T07:03:24.567Z,0.00
2022-12-17T07:04:24.562Z,0.00
2022-12-17T07:05:24.540Z,0.00
2022-12-17T07:06:24.523Z,0.00
2022-12-17T07:07:24.489Z,0.00
2022-12-17T07:08:24.487Z,4.00
2022-12-17T07:09:24.451Z,4.00
2022-12-17T07:10:24.505Z,4.00
2022-12-17T07:11:24.475Z,0.00
2022-12-17T07:12:24.453Z,0.00
2022-12-17T07:13:24.410Z,4.00
2022-12-17T07:14:24.422Z,4.00
2022-12-17T07:15:24.386Z,4.00
2022-12-17T07:16:24.447Z,4.00
2022-12-17T07:17:24.364Z,0.00
2022-12-17T07:18:24.366Z,4.00
2022-12-17T07:19:27.512Z,4.00
2022-12-17T07:20:24.355Z,4.00
2022-12-17T07:21:24.336Z,4.00
2022-12-17T07:22:24.340Z,4.00
2022-12-17T07:23:24.291Z,4.00
2022-12-17T07:24:24.301Z,4.00
2022-12-17T07:25:24.262Z,4.00
2022-12-17T07:26:24.319Z,4.00
2022-12-17T07:27:24.243Z,8.00
2022-12-17T07:28:24.272Z,4.00
2022-12-17T07:29:24.215Z,8.00
2022-12-17T07:30:24.227Z,8.00
2022-12-17T07:31:24.273Z,4.00
2022-12-17T07:32:24.211Z,8.00
2022-12-17T07:33:24.161Z,4.00
2022-12-17T07:34:24.185Z,8.00
2022-12-17T07:35:24.141Z,8.00
2022-12-17T07:36:24.210Z,8.00
2022-12-17T07:37:24.128Z,8.00
2022-12-17T07:38:24.128Z,8.00
2022-12-17T07:39:24.085Z,8.00
2022-12-17T07:40:24.116Z,12.00
2022-12-17T07:41:24.106Z,12.00
2022-12-17T07:42:24.079Z,12.00
2022-12-17T07:43:24.048Z,12.00
2022-12-17T07:44:24.060Z,12.00
2022-12-17T07:45:24.037Z,12.00
2022-12-17T07:46:24.113Z,12.00
2022-12-17T07:47:23.991Z,12.00
2022-12-17T07:48:24.010Z,12.00
2022-12-17T07:49:25.993Z,12.00
2022-12-17T07:50:23.969Z,16.00
2022-12-17T07:51:23.960Z,16.00
2022-12-17T07:52:23.948Z,16.00
2022-12-17T07:53:23.927Z,16.00
2022-12-17T07:54:23.959Z,20.00
2022-12-17T07:55:23.897Z,20.00
2022-12-17T07:56:23.897Z,16.00
2022-12-17T07:57:23.871Z,20.00
2022-12-17T07:58:23.889Z,20.00
2022-12-17T07:59:23.838Z,20.00
2022-12-17T08:00:23.881Z,20.00
2022-12-17T08:01:23.935Z,24.00
2022-12-17T08:02:23.940Z,24.00
2022-12-17T08:03:23.873Z,20.00
2022-12-17T08:04:23.804Z,24.00
2022-12-17T08:05:23.766Z,24.00
2022-12-17T08:06:23.819Z,24.00
2022-12-17T08:07:23.736Z,24.00
2022-12-17T08:08:23.766Z,24.00
2022-12-17T08:09:23.732Z,24.00
2022-12-17T08:10:23.775Z,28.00
2022-12-17T08:11:23.733Z,28.00
2022-12-17T08:12:23.742Z,28.00
2022-12-17T08:13:23.675Z,28.00
2022-12-17T08:14:23.685Z,28.00
2022-12-17T08:15:23.659Z,32.00
2022-12-17T08:16:23.735Z,28.00
2022-12-17T08:17:23.620Z,28.00
2022-12-17T08:18:26.683Z,32.00
2022-12-17T08:19:23.591Z,28.00
2022-12-17T08:20:23.670Z,32.00
2022-12-17T08:21:23.579Z,32.00
2022-12-17T08:22:23.613Z,32.00
2022-12-17T08:23:23.560Z,32.00
2022-12-17T08:24:23.566Z,32.00
2022-12-17T08:25:23.536Z,36.00
2022-12-17T08:26:23.542Z,36.00
2022-12-17T08:27:23.519Z,32.00
2022-12-17T08:29:23.497Z,36.00
2022-12-17T08:30:23.610Z,36.00
2022-12-17T08:31:23.513Z,36.00
2022-12-17T08:32:23.490Z,36.00
2022-12-17T08:33:23.424Z,36.00
2022-12-17T08:34:23.448Z,36.00
2022-12-17T08:35:23.394Z,40.00
2022-12-17T08:36:23.422Z,40.00
2022-12-17T08:37:23.398Z,40.00
2022-12-17T08:38:23.427Z,40.00
2022-12-17T08:39:23.341Z,40.00
2022-12-17T08:40:23.388Z,40.00
2022-12-17T08:41:23.345Z,40.00
2022-12-17T08:42:23.378Z,40.00
2022-12-17T08:43:23.296Z,40.00
2022-12-17T08:44:23.321Z,40.00
2022-12-17T08:45:23.282Z,44.00
2022-12-17T08:46:23.343Z,40.00
2022-12-17T08:47:23.264Z,44.00
2022-12-17T08:48:23.266Z,44.00
2022-12-17T08:49:23.255Z,44.00
2022-12-17T08:50:23.216Z,44.00
2022-12-17T08:51:23.236Z,48.00
2022-12-17T08:52:23.190Z,44.00
2022-12-17T08:53:23.222Z,48.00
2022-12-17T08:54:23.151Z,48.00
2022-12-17T08:55:23.174Z,52.00
2022-12-17T08:56:23.137Z,48.00
2022-12-17T08:57:31.398Z,52.00
2022-12-17T08:58:23.147Z,56.00
2022-12-17T08:59:23.132Z,52.00
2022-12-17T09:00:23.117Z,56.00
2022-12-17T09:01:23.258Z,56.00
2022-12-17T09:02:23.208Z,56.00
2022-12-17T09:03:23.152Z,56.00
2022-12-17T09:04:23.033Z,56.00
2022-12-17T09:05:23.046Z,56.00
2022-12-17T09:06:23.019Z,60.00
2022-12-17T09:07:23.037Z,56.00
2022-12-17T09:08:22.993Z,60.00
2022-12-17T09:09:23.028Z,60.00
2022-12-17T09:10:23.010Z,60.00
2022-12-17T09:11:22.971Z,60.00
2022-12-17T09:12:22.945Z,60.00
2022-12-17T09:13:22.951Z,60.00
2022-12-17T09:14:22.924Z,60.00
2022-12-17T09:15:22.960Z,60.00
2022-12-17T09:16:22.912Z,60.00
2022-12-17T09:17:22.895Z,68.00
2022-12-17T09:18:22.869Z,68.00
2022-12-17T09:19:22.874Z,64.00
2022-12-17T09:20:28.973Z,64.00
2022-12-17T09:21:22.870Z,60.00
2022-12-17T09:22:22.844Z,60.00
2022-12-17T09:23:22.831Z,64.00
2022-12-17T09:24:22.801Z,64.00
2022-12-17T09:25:22.801Z,68.00
2022-12-17T09:26:22.802Z,68.00
2022-12-17T09:27:22.796Z,68.00
2022-12-17T09:28:22.768Z,68.00
2022-12-17T09:29:22.776Z,72.00
2022-12-17T09:30:22.723Z,68.00
2022-12-17T09:31:22.762Z,68.00
2022-12-17T09:32:22.725Z,68.00
2022-12-17T09:33:22.738Z,72.00
2022-12-17T09:34:22.677Z,72.00
2022-12-17T09:35:22.690Z,72.00
2022-12-17T09:36:22.670Z,72.00
2022-12-17T09:37:22.681Z,76.00
2022-12-17T09:38:22.624Z,72.00
2022-12-17T09:39:22.657Z,68.00
2022-12-17T09:40:22.600Z,72.00
2022-12-17T09:41:22.630Z,72.00
2022-12-17T09:42:22.583Z,72.00
2022-12-17T09:43:22.586Z,76.00
2022-12-17T09:44:22.581Z,76.00
2022-12-17T09:45:22.563Z,76.00
2022-12-17T09:46:22.614Z,80.00
2022-12-17T09:47:22.535Z,80.00
2022-12-17T09:48:22.489Z,80.00
2022-12-17T09:49:22.517Z,84.00
2022-12-17T09:50:22.491Z,80.00
2022-12-17T09:51:22.500Z,84.00
2022-12-17T09:52:22.489Z,80.00
2022-12-17T09:53:22.465Z,80.00
2022-12-17T09:54:22.424Z,80.00
2022-12-17T09:55:22.473Z,84.00
2022-12-17T09:56:22.401Z,84.00
2022-12-17T09:57:22.413Z,88.00
2022-12-17T09:58:22.367Z,88.00
2022-12-17T09:59:22.422Z,84.00
2022-12-17T10:00:22.353Z,80.00
2022-12-17T10:01:22.511Z,84.00
2022-12-17T10:02:22.517Z,84.00
2022-12-17T10:03:22.391Z,84.00
2022-12-17T10:04:22.308Z,84.00
2022-12-17T10:05:22.337Z,88.00
2022-12-17T10:06:22.826Z,88.00
2022-12-17T10:07:22.278Z,92.00
2022-12-17T10:08:22.264Z,88.00
2022-12-17T10:09:22.282Z,92.00
2022-12-17T10:10:22.259Z,92.00
2022-12-17T10:11:22.238Z,92.00
2022-12-17T10:12:22.209Z,88.00
2022-12-17T10:13:22.220Z,88.00
2022-12-17T10:14:22.180Z,84.00
2022-12-17T10:15:22.210Z,84.00
2022-12-17T10:16:22.227Z,88.00
2022-12-17T10:17:22.177Z,92.00
2022-12-17T10:18:22.127Z,88.00
2022-12-17T10:19:22.138Z,88.00
2022-12-17T10:20:22.131Z,88.00
2022-12-17T10:21:22.144Z,88.00
2022-12-17T10:22:22.075Z,88.00
2022-12-17T10:23:22.115Z,84.00
2022-12-17T10:24:22.075Z,88.00
2022-12-17T10:25:22.129Z,88.00
2022-12-17T10:26:22.042Z,88.00
2022-12-17T10:27:22.036Z,88.00
2022-12-17T10:28:22.021Z,84.00
2022-12-17T10:29:22.031Z,88.00
2022-12-17T10:30:21.970Z,92.00
2022-12-17T10:31:22.126Z,92.00
2022-12-17T10:32:21.952Z,96.00
2022-12-17T10:33:21.970Z,96.00
2022-12-17T10:34:21.958Z,96.00
2022-12-17T10:35:21.935Z,96.00
2022-12-17T10:36:21.938Z,100.00
2022-12-17T10:37:21.989Z,100.00
2022-12-17T10:38:21.874Z,100.00
2022-12-17T10:39:21.922Z,104.00
2022-12-17T10:40:21.867Z,104.00
2022-12-17T10:41:21.924Z,100.00
2022-12-17T10:42:21.834Z,104.00
2022-12-17T10:43:21.840Z,104.00
2022-12-17T10:44:21.805Z,104.00
2022-12-17T10:45:21.809Z,104.00
2022-12-17T10:46:21.867Z,108.00
2022-12-17T10:47:21.799Z,112.00
2022-12-17T10:48:21.752Z,112.00
2022-12-17T10:49:21.811Z,116.00
2022-12-17T10:50:21.772Z,116.00
2022-12-17T10:51:21.795Z,120.00
2022-12-17T10:52:21.718Z,128.00
2022-12-17T10:53:21.716Z,132.00
2022-12-17T10:54:21.694Z,132.00
2022-12-17T10:55:21.706Z,124.00
2022-12-17T10:56:21.664Z,112.00
2022-12-17T10:57:21.692Z,108.00
2022-12-17T10:58:21.659Z,108.00
2022-12-17T10:59:21.816Z,116.00
2022-12-17T11:00:21.618Z,112.00
2022-12-17T11:01:21.739Z,112.00
2022-12-17T11:02:21.904Z,116.00
2022-12-17T11:03:21.709Z,124.00
2022-12-17T11:04:21.619Z,144.00
2022-12-17T11:05:21.578Z,160.00
2022-12-17T11:06:21.555Z,144.00
2022-12-17T11:07:21.547Z,132.00
2022-12-17T11:08:21.555Z,116.00
2022-12-17T11:09:21.575Z,104.00
2022-12-17T11:10:21.485Z,108.00
2022-12-17T11:11:21.534Z,112.00
2022-12-17T11:12:25.777Z,124.00
2022-12-17T11:13:21.479Z,120.00
2022-12-17T11:14:21.461Z,112.00
2022-12-17T11:15:21.476Z,108.00
2022-12-17T11:16:21.523Z,108.00
2022-12-17T11:17:21.434Z,112.00
2022-12-17T11:18:21.380Z,112.00
2022-12-17T11:19:21.394Z,108.00
2022-12-17T11:20:21.356Z,104.00
2022-12-17T11:21:21.394Z,104.00
2022-12-17T11:22:21.332Z,104.00
2022-12-17T11:23:21.368Z,100.00
2022-12-17T11:24:22.910Z,104.00
2022-12-17T11:25:21.336Z,108.00
2022-12-17T11:26:21.288Z,104.00
2022-12-17T11:27:21.301Z,96.00
2022-12-17T11:28:21.282Z,100.00
2022-12-17T11:29:21.271Z,100.00
2022-12-17T11:30:24.035Z,104.00
2022-12-17T11:31:21.291Z,104.00
2022-12-17T11:32:21.240Z,108.00
2022-12-17T11:33:21.234Z,112.00
2022-12-17T11:34:21.227Z,120.00
2022-12-17T11:35:21.167Z,116.00
2022-12-17T11:36:27.605Z,116.00
2022-12-17T11:37:21.152Z,120.00
2022-12-17T11:38:21.187Z,128.00
2022-12-17T11:39:21.143Z,144.00
2022-12-17T11:40:21.144Z,140.00
2022-12-17T11:41:21.104Z,124.00
2022-12-17T11:42:21.120Z,120.00
2022-12-17T11:43:21.076Z,120.00
2022-12-17T11:44:21.122Z,124.00
2022-12-17T11:45:21.059Z,132.00
2022-12-17T11:46:21.160Z,144.00
2022-12-17T11:47:21.017Z,144.00
2022-12-17T11:48:21.053Z,132.00
2022-12-17T11:49:21.031Z,136.00
2022-12-17T11:50:21.013Z,132.00
2022-12-17T11:51:20.978Z,132.00
2022-12-17T11:52:20.985Z,132.00
2022-12-17T11:53:27.540Z,128.00
2022-12-17T11:54:21.021Z,132.00
2022-12-17T11:55:20.976Z,132.00
2022-12-17T11:56:20.941Z,128.00
2022-12-17T11:57:20.897Z,128.00
2022-12-17T11:58:20.942Z,132.00
2022-12-17T11:59:20.920Z,124.00
2022-12-17T12:00:20.890Z,116.00
2022-12-17T12:01:20.916Z,116.00
2022-12-17T12:02:20.962Z,112.00
2022-12-17T12:03:21.067Z,112.00
2022-12-17T12:04:20.903Z,100.00
2022-12-17T12:05:20.846Z,96.00
2022-12-17T12:06:20.825Z,96.00
2022-12-17T12:07:20.782Z,92.00
2022-12-17T12:08:20.808Z,96.00
2022-12-17T12:09:20.764Z,92.00
2022-12-17T12:10:20.768Z,92.00
2022-12-17T12:11:20.752Z,88.00
2022-12-17T12:12:20.758Z,88.00
2022-12-17T12:13:20.764Z,92.00
2022-12-17T12:14:20.732Z,92.00
2022-12-17T12:15:20.709Z,92.00
2022-12-17T12:16:20.729Z,84.00
2022-12-17T12:17:20.687Z,88.00
2022-12-17T12:18:20.673Z,92.00
2022-12-17T12:19:20.671Z,84.00
2022-12-17T12:20:20.954Z,84.00
2022-12-17T12:21:20.642Z,80.00
2022-12-17T12:22:23.633Z,84.00
2022-12-17T12:23:20.616Z,80.00
2022-12-17T12:24:20.606Z,80.00
2022-12-17T12:25:20.602Z,80.00
2022-12-17T12:26:20.575Z,84.00
2022-12-17T12:27:20.556Z,84.00
2022-12-17T12:28:20.551Z,76.00
2022-12-17T12:29:20.544Z,76.00
2022-12-17T12:30:20.537Z,72.00
2022-12-17T12:31:20.545Z,76.00
2022-12-17T12:32:20.500Z,80.00
2022-12-17T12:33:20.495Z,84.00
2022-12-17T12:34:20.527Z,92.00
2022-12-17T12:35:20.451Z,84.00
2022-12-17T12:36:20.477Z,80.00
2022-12-17T12:37:20.468Z,76.00
2022-12-17T12:38:20.436Z,76.00
2022-12-17T12:39:20.420Z,80.00
2022-12-17T12:40:20.411Z,80.00
2022-12-17T12:41:20.400Z,80.00
2022-12-17T12:42:20.378Z,80.00
2022-12-17T12:43:20.335Z,84.00
2022-12-17T12:44:20.362Z,80.00
2022-12-17T12:45:20.313Z,76.00
2022-12-17T12:46:20.468Z,72.00
2022-12-17T12:47:20.284Z,68.00
2022-12-17T12:48:20.338Z,68.00
2022-12-17T12:49:20.271Z,64.00
2022-12-17T12:50:20.287Z,68.00
2022-12-17T12:51:20.240Z,64.00
2022-12-17T12:52:20.264Z,64.00
2022-12-17T12:53:20.210Z,68.00
2022-12-17T12:54:20.216Z,72.00
2022-12-17T12:55:20.206Z,76.00
2022-12-17T12:56:20.220Z,76.00
2022-12-17T12:57:20.173Z,72.00
2022-12-17T12:58:20.211Z,76.00
2022-12-17T12:59:20.880Z,72.00
2022-12-17T13:00:20.182Z,68.00
2022-12-17T13:01:20.233Z,68.00
2022-12-17T13:02:20.313Z,68.00
2022-12-17T13:03:21.457Z,72.00
2022-12-17T13:04:20.077Z,76.00
2022-12-17T13:05:20.084Z,76.00